sensor_id;sensor_type;location;lat;lon;timestamp;pressure;altitude;pressure_sealevel;temperature;humidity
57779;BME280;43608;49.486;9.640;2022-12-07T00:00:20;98762.31;;;1.20;92.28
57779;BME280;43608;49.486;9.640;2022-12-07T00:00:50;98764.09;;;1.21;92.64
57779;BME280;43608;49.486;9.640;2022-12-07T00:01:23;98762.25;;;1.19;92.46
57779;BME280;43608;49.486;9.640;2022-12-07T00:01:53;98751.56;;;1.11;92.26
57779;BME280;43608;49.486;9.640;2022-12-07T00:02:23;98754.25;;;1.14;92.60
57779;BME280;43608;49.486;9.640;2022-12-07T00:02:54;98760.31;;;1.13;92.94
57779;BME280;43608;49.486;9.640;2022-12-07T00:03:24;98748.66;;;1.03;92.97
57779;BME280;43608;49.486;9.640;2022-12-07T00:03:56;98754.03;;;1.08;92.69
57779;BME280;43608;49.486;9.640;2022-12-07T00:04:30;98753.06;;;1.04;93.00
57779;BME280;43608;49.486;9.640;2022-12-07T00:05:01;98750.31;;;1.01;92.89
57779;BME280;43608;49.486;9.640;2022-12-07T00:05:31;98749.31;;;0.97;92.82
57779;BME280;43608;49.486;9.640;2022-12-07T00:06:02;98759.06;;;1.02;92.83
57779;BME280;43608;49.486;9.640;2022-12-07T00:06:38;98761.69;;;1.02;93.13
57779;BME280;43608;49.486;9.640;2022-12-07T00:07:08;98761.59;;;1.00;92.94
57779;BME280;43608;49.486;9.640;2022-12-07T00:07:39;98750.97;;;0.94;93.11
57779;BME280;43608;49.486;9.640;2022-12-07T00:08:09;98763.25;;;0.96;93.06
57779;BME280;43608;49.486;9.640;2022-12-07T00:08:40;98755.31;;;0.95;92.95
57779;BME280;43608;49.486;9.640;2022-12-07T00:09:12;98746.34;;;0.87;93.45
57779;BME280;43608;49.486;9.640;2022-12-07T00:09:43;98752.53;;;0.89;93.19
57779;BME280;43608;49.486;9.640;2022-12-07T00:10:13;98759.56;;;0.91;93.11
57779;BME280;43608;49.486;9.640;2022-12-07T00:10:44;98701.69;;;0.53;93.04
57779;BME280;43608;49.486;9.640;2022-12-07T00:11:17;98749.78;;;0.86;93.46
57779;BME280;43608;49.486;9.640;2022-12-07T00:11:49;98762.06;;;0.88;93.34
57779;BME280;43608;49.486;9.640;2022-12-07T00:12:20;98762.00;;;0.87;93.34
57779;BME280;43608;49.486;9.640;2022-12-07T00:12:50;98740.75;;;0.76;93.12
57779;BME280;43608;49.486;9.640;2022-12-07T00:13:21;98741.63;;;0.76;93.30
57779;BME280;43608;49.486;9.640;2022-12-07T00:14:00;98763.63;;;0.83;93.16
57779;BME280;43608;49.486;9.640;2022-12-07T00:14:30;98758.25;;;0.78;93.08
57779;BME280;43608;49.486;9.640;2022-12-07T00:15:01;98733.53;;;0.69;93.37
57779;BME280;43608;49.486;9.640;2022-12-07T00:15:33;98749.41;;;0.75;93.09
57779;BME280;43608;49.486;9.640;2022-12-07T00:16:08;98765.16;;;0.78;93.07
57779;BME280;43608;49.486;9.640;2022-12-07T00:16:38;98752.03;;;0.75;93.36
57779;BME280;43608;49.486;9.640;2022-12-07T00:17:09;98753.63;;;0.71;92.87
57779;BME280;43608;49.486;9.640;2022-12-07T00:17:39;98757.16;;;0.72;93.28
57779;BME280;43608;49.486;9.640;2022-12-07T00:18:10;98755.31;;;0.69;93.23
57779;BME280;43608;49.486;9.640;2022-12-07T00:18:41;98751.75;;;0.67;93.05
57779;BME280;43608;49.486;9.640;2022-12-07T00:19:12;98760.63;;;0.72;93.22
57779;BME280;43608;49.486;9.640;2022-12-07T00:19:43;98758.81;;;0.70;92.92
57779;BME280;43608;49.486;9.640;2022-12-07T00:20:13;98762.28;;;0.70;93.38
57779;BME280;43608;49.486;9.640;2022-12-07T00:20:44;98747.22;;;0.61;93.03
57779;BME280;43608;49.486;9.640;2022-12-07T00:21:17;98758.75;;;0.68;92.97
57779;BME280;43608;49.486;9.640;2022-12-07T00:21:47;98750.75;;;0.63;93.34
57779;BME280;43608;49.486;9.640;2022-12-07T00:22:18;98738.38;;;0.58;93.37
57779;BME280;43608;49.486;9.640;2022-12-07T00:22:48;98741.81;;;0.57;93.43
57779;BME280;43608;49.486;9.640;2022-12-07T00:23:18;98743.59;;;0.58;93.05
57779;BME280;43608;49.486;9.640;2022-12-07T00:23:50;98745.38;;;0.59;93.00
57779;BME280;43608;49.486;9.640;2022-12-07T00:24:21;98761.19;;;0.63;93.46
57779;BME280;43608;49.486;9.640;2022-12-07T00:24:51;98743.53;;;0.56;93.29
57779;BME280;43608;49.486;9.640;2022-12-07T00:25:22;98759.41;;;0.62;93.54
57779;BME280;43608;49.486;9.640;2022-12-07T00:25:52;98735.44;;;0.48;93.41
57779;BME280;43608;49.486;9.640;2022-12-07T00:26:27;98754.13;;;0.61;93.33
57779;BME280;43608;49.486;9.640;2022-12-07T00:26:58;98746.09;;;0.55;93.18
57779;BME280;43608;49.486;9.640;2022-12-07T00:27:29;98743.38;;;0.52;93.35
57779;BME280;43608;49.486;9.640;2022-12-07T00:27:59;98728.16;;;0.40;93.33
57779;BME280;43608;49.486;9.640;2022-12-07T00:28:29;98751.25;;;0.53;93.06
57779;BME280;43608;49.486;9.640;2022-12-07T00:29:02;98739.75;;;0.48;93.31
57779;BME280;43608;49.486;9.640;2022-12-07T00:29:34;98732.59;;;0.42;93.21
57779;BME280;43608;49.486;9.640;2022-12-07T00:30:05;98753.69;;;0.48;93.42
57779;BME280;43608;49.486;9.640;2022-12-07T00:30:35;98752.88;;;0.49;92.96
57779;BME280;43608;49.486;9.640;2022-12-07T00:31:10;98744.91;;;0.46;93.01
57779;BME280;43608;49.486;9.640;2022-12-07T00:31:41;98752.75;;;0.46;93.21
57779;BME280;43608;49.486;9.640;2022-12-07T00:32:11;98711.94;;;0.24;92.72
57779;BME280;43608;49.486;9.640;2022-12-07T00:32:42;98734.06;;;0.34;93.04
57779;BME280;43608;49.486;9.640;2022-12-07T00:33:12;98741.91;;;0.36;93.37
57779;BME280;43608;49.486;9.640;2022-12-07T00:33:43;98738.34;;;0.33;92.68
57779;BME280;43608;49.486;9.640;2022-12-07T00:34:19;98747.13;;;0.36;93.28
57779;BME280;43608;49.486;9.640;2022-12-07T00:34:49;98743.56;;;0.33;93.28
57779;BME280;43608;49.486;9.640;2022-12-07T00:35:20;98737.28;;;0.28;93.11
57779;BME280;43608;49.486;9.640;2022-12-07T00:35:55;98743.47;;;0.30;92.99
57779;BME280;43608;49.486;9.640;2022-12-07T00:36:26;98753.22;;;0.36;93.10
57779;BME280;43608;49.486;9.640;2022-12-07T00:36:56;98745.25;;;0.31;93.01
57779;BME280;43608;49.486;9.640;2022-12-07T00:37:27;98733.56;;;0.22;92.85
57779;BME280;43608;49.486;9.640;2022-12-07T00:37:57;98749.50;;;0.29;93.06
57779;BME280;43608;49.486;9.640;2022-12-07T00:38:29;98735.31;;;0.21;93.18
57779;BME280;43608;49.486;9.640;2022-12-07T00:39:00;98751.34;;;0.32;93.38
57779;BME280;43608;49.486;9.640;2022-12-07T00:39:31;98739.81;;;0.25;93.14
57779;BME280;43608;49.486;9.640;2022-12-07T00:40:01;98737.09;;;0.22;93.06
57779;BME280;43608;49.486;9.640;2022-12-07T00:40:31;98744.25;;;0.28;93.23
57779;BME280;43608;49.486;9.640;2022-12-07T00:41:25;98759.22;;;0.33;93.11
57779;BME280;43608;49.486;9.640;2022-12-07T00:41:54;98733.56;;;0.22;93.55
57779;BME280;43608;49.486;9.640;2022-12-07T00:42:24;98758.34;;;0.33;93.08
57779;BME280;43608;49.486;9.640;2022-12-07T00:42:55;98739.84;;;0.27;93.16
57779;BME280;43608;49.486;9.640;2022-12-07T00:43:26;98754.91;;;0.34;93.36
57779;BME280;43608;49.486;9.640;2022-12-07T00:43:57;98753.94;;;0.32;93.25
57779;BME280;43608;49.486;9.640;2022-12-07T00:44:27;98721.22;;;0.16;93.27
57779;BME280;43608;49.486;9.640;2022-12-07T00:44:58;98748.63;;;0.29;93.09
57779;BME280;43608;49.486;9.640;2022-12-07T00:45:28;98760.81;;;0.30;92.82
57779;BME280;43608;49.486;9.640;2022-12-07T00:45:58;98758.19;;;0.30;93.15
57779;BME280;43608;49.486;9.640;2022-12-07T00:46:29;98737.91;;;0.21;92.84
57779;BME280;43608;49.486;9.640;2022-12-07T00:47:00;98753.78;;;0.27;92.46
57779;BME280;43608;49.486;9.640;2022-12-07T00:47:30;98747.56;;;0.24;92.85
57779;BME280;43608;49.486;9.640;2022-12-07T00:48:00;98749.28;;;0.23;93.03
57779;BME280;43608;49.486;9.640;2022-12-07T00:48:31;98752.00;;;0.26;92.95
57779;BME280;43608;49.486;9.640;2022-12-07T00:49:02;98732.34;;;0.12;93.04
57779;BME280;43608;49.486;9.640;2022-12-07T00:49:32;98739.47;;;0.16;92.78
57779;BME280;43608;49.486;9.640;2022-12-07T00:50:03;98746.50;;;0.19;93.01
57779;BME280;43608;49.486;9.640;2022-12-07T00:50:33;98751.72;;;0.19;93.08
57779;BME280;43608;49.486;9.640;2022-12-07T00:51:04;98759.59;;;0.20;92.29
57779;BME280;43608;49.486;9.640;2022-12-07T00:51:35;98757.75;;;0.18;92.93
57779;BME280;43608;49.486;9.640;2022-12-07T00:52:05;98755.09;;;0.16;92.47
57779;BME280;43608;49.486;9.640;2022-12-07T00:52:36;98744.44;;;0.10;92.64
57779;BME280;43608;49.486;9.640;2022-12-07T00:53:06;98718.56;;;-0.08;92.75
57779;BME280;43608;49.486;9.640;2022-12-07T00:53:37;98751.38;;;0.09;92.76
57779;BME280;43608;49.486;9.640;2022-12-07T00:54:08;98752.97;;;0.06;92.50
57779;BME280;43608;49.486;9.640;2022-12-07T00:54:39;98754.81;;;0.08;92.79
57779;BME280;43608;49.486;9.640;2022-12-07T00:55:09;98747.75;;;0.06;92.80
57779;BME280;43608;49.486;9.640;2022-12-07T00:55:40;98752.91;;;0.04;92.90
57779;BME280;43608;49.486;9.640;2022-12-07T00:56:15;98752.81;;;0.03;92.87
57779;BME280;43608;49.486;9.640;2022-12-07T00:56:46;98750.94;;;-0.02;93.07
57779;BME280;43608;49.486;9.640;2022-12-07T00:57:16;98751.78;;;-0.03;93.12
57779;BME280;43608;49.486;9.640;2022-12-07T00:57:46;98749.03;;;-0.06;92.56
57779;BME280;43608;49.486;9.640;2022-12-07T00:58:17;98723.31;;;-0.21;92.98
57779;BME280;43608;49.486;9.640;2022-12-07T00:59:05;98739.16;;;-0.14;93.09
57779;BME280;43608;49.486;9.640;2022-12-07T00:59:36;98723.97;;;-0.25;93.15
57779;BME280;43608;49.486;9.640;2022-12-07T01:00:06;98746.03;;;-0.17;93.31
57779;BME280;43608;49.486;9.640;2022-12-07T01:00:38;98756.56;;;-0.13;93.06
57779;BME280;43608;49.486;9.640;2022-12-07T01:01:10;98746.81;;;-0.19;93.35
57779;BME280;43608;49.486;9.640;2022-12-07T01:01:40;98736.25;;;-0.22;93.32
57779;BME280;43608;49.486;9.640;2022-12-07T01:02:11;98743.44;;;-0.17;92.99
57779;BME280;43608;49.486;9.640;2022-12-07T01:02:41;98722.75;;;-0.35;93.35
57779;BME280;43608;49.486;9.640;2022-12-07T01:03:16;98752.06;;;-0.18;93.60
57779;BME280;43608;49.486;9.640;2022-12-07T01:03:47;98741.44;;;-0.22;93.57
57779;BME280;43608;49.486;9.640;2022-12-07T01:04:17;98723.63;;;-0.34;93.20
57779;BME280;43608;49.486;9.640;2022-12-07T01:04:48;98720.03;;;-0.38;93.33
57779;BME280;43608;49.486;9.640;2022-12-07T01:05:18;98739.50;;;-0.28;93.83
57779;BME280;43608;49.486;9.640;2022-12-07T01:05:51;98729.84;;;-0.30;93.78
57779;BME280;43608;49.486;9.640;2022-12-07T01:06:23;98721.78;;;-0.37;93.33
57779;BME280;43608;49.486;9.640;2022-12-07T01:06:54;98645.34;;;-0.82;93.39
57779;BME280;43608;49.486;9.640;2022-12-07T01:07:24;98742.31;;;-0.23;93.32
57779;BME280;43608;49.486;9.640;2022-12-07T01:07:54;98752.00;;;-0.19;93.30
57779;BME280;43608;49.486;9.640;2022-12-07T01:08:27;98745.00;;;-0.20;93.35
57779;BME280;43608;49.486;9.640;2022-12-07T01:08:57;98722.75;;;-0.35;93.62
57779;BME280;43608;49.486;9.640;2022-12-07T01:09:28;98750.41;;;-0.15;93.45
57779;BME280;43608;49.486;9.640;2022-12-07T01:09:58;98733.53;;;-0.25;93.39
57779;BME280;43608;49.486;9.640;2022-12-07T01:10:29;98745.88;;;-0.20;93.63
57779;BME280;43608;49.486;9.640;2022-12-07T01:11:06;98735.31;;;-0.24;93.51
57779;BME280;43608;49.486;9.640;2022-12-07T01:11:37;98739.56;;;-0.26;93.63
57779;BME280;43608;49.486;9.640;2022-12-07T01:12:07;98747.81;;;-0.15;93.57
57779;BME280;43608;49.486;9.640;2022-12-07T01:12:38;98722.03;;;-0.30;93.30
57779;BME280;43608;49.486;9.640;2022-12-07T01:13:08;98742.47;;;-0.19;93.25
57779;BME280;43608;49.486;9.640;2022-12-07T01:13:38;98723.78;;;-0.31;93.31
57779;BME280;43608;49.486;9.640;2022-12-07T01:14:09;98755.75;;;-0.12;93.68
57779;BME280;43608;49.486;9.640;2022-12-07T01:14:41;98746.97;;;-0.14;93.17
57779;BME280;43608;49.486;9.640;2022-12-07T01:15:11;98733.78;;;-0.19;93.22
57779;BME280;43608;49.486;9.640;2022-12-07T01:15:42;98746.84;;;-0.18;93.53
57779;BME280;43608;49.486;9.640;2022-12-07T01:16:15;98739.91;;;-0.17;93.39
57779;BME280;43608;49.486;9.640;2022-12-07T01:16:45;98740.81;;;-0.17;93.26
57779;BME280;43608;49.486;9.640;2022-12-07T01:17:16;98746.84;;;-0.18;93.61
57779;BME280;43608;49.486;9.640;2022-12-07T01:17:46;98752.25;;;-0.13;93.16
57779;BME280;43608;49.486;9.640;2022-12-07T01:18:16;98720.41;;;-0.28;93.40
57779;BME280;43608;49.486;9.640;2022-12-07T01:18:48;98746.19;;;-0.12;93.46
57779;BME280;43608;49.486;9.640;2022-12-07T01:19:19;98715.19;;;-0.28;93.46
57779;BME280;43608;49.486;9.640;2022-12-07T01:19:49;98743.69;;;-0.10;93.56
57779;BME280;43608;49.486;9.640;2022-12-07T01:20:19;98735.72;;;-0.13;93.58
57779;BME280;43608;49.486;9.640;2022-12-07T01:21:08;98748.88;;;-0.10;93.66
57779;BME280;43608;49.486;9.640;2022-12-07T01:21:39;98738.28;;;-0.15;93.16
57779;BME280;43608;49.486;9.640;2022-12-07T01:22:09;98744.50;;;-0.11;93.29
57779;BME280;43608;49.486;9.640;2022-12-07T01:22:40;98744.56;;;-0.10;93.38
57779;BME280;43608;49.486;9.640;2022-12-07T01:23:11;98728.56;;;-0.19;93.18
57779;BME280;43608;49.486;9.640;2022-12-07T01:23:41;98714.41;;;-0.26;93.35
57779;BME280;43608;49.486;9.640;2022-12-07T01:24:12;98738.38;;;-0.12;93.66
57779;BME280;43608;49.486;9.640;2022-12-07T01:24:42;98713.66;;;-0.23;93.12
57779;BME280;43608;49.486;9.640;2022-12-07T01:25:13;98731.41;;;-0.13;93.39
57779;BME280;43608;49.486;9.640;2022-12-07T01:25:43;98726.88;;;-0.17;93.29
57779;BME280;43608;49.486;9.640;2022-12-07T01:26:20;98734.13;;;-0.10;93.66
57779;BME280;43608;49.486;9.640;2022-12-07T01:26:50;98726.22;;;-0.13;93.52
57779;BME280;43608;49.486;9.640;2022-12-07T01:27:21;98719.97;;;-0.17;93.60
57779;BME280;43608;49.486;9.640;2022-12-07T01:27:51;98738.56;;;-0.07;93.43
57779;BME280;43608;49.486;9.640;2022-12-07T01:28:21;98715.50;;;-0.21;93.51
57779;BME280;43608;49.486;9.640;2022-12-07T01:28:52;98722.69;;;-0.13;93.67
57779;BME280;43608;49.486;9.640;2022-12-07T01:29:25;98727.09;;;-0.12;93.68
57779;BME280;43608;49.486;9.640;2022-12-07T01:29:55;98732.47;;;-0.08;93.68
57779;BME280;43608;49.486;9.640;2022-12-07T01:30:25;98729.78;;;-0.09;93.88
57779;BME280;43608;49.486;9.640;2022-12-07T01:31:00;98719.25;;;-0.12;93.81
57779;BME280;43608;49.486;9.640;2022-12-07T01:31:31;98713.75;;;-0.20;93.40
57779;BME280;43608;49.486;9.640;2022-12-07T01:32:02;98719.38;;;-0.09;93.73
57779;BME280;43608;49.486;9.640;2022-12-07T01:32:33;98705.06;;;-0.21;93.64
57779;BME280;43608;49.486;9.640;2022-12-07T01:33:03;98725.53;;;-0.07;93.46
57779;BME280;43608;49.486;9.640;2022-12-07T01:33:36;98728.09;;;-0.09;93.61
57779;BME280;43608;49.486;9.640;2022-12-07T01:34:07;98732.53;;;-0.06;93.40
57779;BME280;43608;49.486;9.640;2022-12-07T01:34:38;98732.41;;;-0.09;93.73
57779;BME280;43608;49.486;9.640;2022-12-07T01:35:08;98722.75;;;-0.12;93.66
57779;BME280;43608;49.486;9.640;2022-12-07T01:35:39;98721.94;;;-0.11;93.71
57779;BME280;43608;49.486;9.640;2022-12-07T01:36:24;98713.00;;;-0.18;93.79
57779;BME280;43608;49.486;9.640;2022-12-07T01:36:55;98690.84;;;-0.29;93.70
57779;BME280;43608;49.486;9.640;2022-12-07T01:37:25;98731.63;;;-0.07;93.99
57779;BME280;43608;49.486;9.640;2022-12-07T01:37:56;98731.56;;;-0.08;93.72
57779;BME280;43608;49.486;9.640;2022-12-07T01:38:26;98728.16;;;-0.07;93.88
57779;BME280;43608;49.486;9.640;2022-12-07T01:38:59;98736.03;;;-0.06;94.15
57779;BME280;43608;49.486;9.640;2022-12-07T01:39:29;98669.50;;;-0.43;93.96
57779;BME280;43608;49.486;9.640;2022-12-07T01:40:00;98723.50;;;-0.14;93.97
57779;BME280;43608;49.486;9.640;2022-12-07T01:40:30;98735.00;;;-0.09;94.29
57779;BME280;43608;49.486;9.640;2022-12-07T01:41:01;98738.56;;;-0.07;94.45
57779;BME280;43608;49.486;9.640;2022-12-07T01:41:35;98740.31;;;-0.08;94.41
57779;BME280;43608;49.486;9.640;2022-12-07T01:42:09;98722.63;;;-0.15;94.06
57779;BME280;43608;49.486;9.640;2022-12-07T01:42:40;98737.56;;;-0.11;94.79
57779;BME280;43608;49.486;9.640;2022-12-07T01:43:16;98741.06;;;-0.10;94.76
57779;BME280;43608;49.486;9.640;2022-12-07T01:44:07;98749.28;;;0.01;94.64
57779;BME280;43608;49.486;9.640;2022-12-07T01:45:46;98727.19;;;-0.09;94.58
57779;BME280;43608;49.486;9.640;2022-12-07T01:46:19;98740.50;;;-0.02;94.69
57779;BME280;43608;49.486;9.640;2022-12-07T01:46:54;98749.41;;;0.04;94.88
57779;BME280;43608;49.486;9.640;2022-12-07T01:47:26;98746.78;;;0.04;94.50
57779;BME280;43608;49.486;9.640;2022-12-07T01:47:57;98738.75;;;-0.03;94.33
57779;BME280;43608;49.486;9.640;2022-12-07T01:48:46;98736.22;;;-0.01;93.96
57779;BME280;43608;49.486;9.640;2022-12-07T01:49:51;98741.19;;;-0.07;93.85
57779;BME280;43608;49.486;9.640;2022-12-07T01:50:24;98751.69;;;-0.04;93.70
57779;BME280;43608;49.486;9.640;2022-12-07T01:51:04;98733.06;;;-0.15;93.88
57779;BME280;43608;49.486;9.640;2022-12-07T01:51:37;98737.59;;;-0.09;93.77
57779;BME280;43608;49.486;9.640;2022-12-07T01:52:31;98740.94;;;-0.13;93.86
57779;BME280;43608;49.486;9.640;2022-12-07T01:53:04;98735.47;;;-0.20;93.99
57779;BME280;43608;49.486;9.640;2022-12-07T01:53:41;98734.66;;;-0.19;93.88
57779;BME280;43608;49.486;9.640;2022-12-07T01:54:14;98738.97;;;-0.19;94.14
57779;BME280;43608;49.486;9.640;2022-12-07T01:54:47;98714.28;;;-0.29;93.90
57779;BME280;43608;49.486;9.640;2022-12-07T01:55:19;98730.09;;;-0.24;94.07
57779;BME280;43608;49.486;9.640;2022-12-07T01:55:52;98737.19;;;-0.20;94.05
57779;BME280;43608;49.486;9.640;2022-12-07T01:56:25;98734.59;;;-0.20;94.38
57779;BME280;43608;49.486;9.640;2022-12-07T01:56:57;98725.66;;;-0.27;94.35
57779;BME280;43608;49.486;9.640;2022-12-07T01:57:28;98727.44;;;-0.26;94.19
57779;BME280;43608;49.486;9.640;2022-12-07T01:58:00;98719.53;;;-0.27;94.02
57779;BME280;43608;49.486;9.640;2022-12-07T01:58:31;98741.66;;;-0.18;94.51
57779;BME280;43608;49.486;9.640;2022-12-07T01:59:01;98713.28;;;-0.32;94.18
57779;BME280;43608;49.486;9.640;2022-12-07T01:59:32;98719.44;;;-0.30;94.35
57779;BME280;43608;49.486;9.640;2022-12-07T02:00:05;98738.22;;;-0.17;94.41
57779;BME280;43608;49.486;9.640;2022-12-07T02:00:36;98728.50;;;-0.21;94.08
57779;BME280;43608;49.486;9.640;2022-12-07T02:01:06;98737.25;;;-0.19;94.10
57779;BME280;43608;49.486;9.640;2022-12-07T02:01:37;98670.78;;;-0.54;94.11
57779;BME280;43608;49.486;9.640;2022-12-07T02:02:11;98736.53;;;-0.14;93.92
57779;BME280;43608;49.486;9.640;2022-12-07T02:02:47;98706.09;;;-0.38;94.24
57779;BME280;43608;49.486;9.640;2022-12-07T02:03:31;98730.47;;;-0.15;94.34
57779;BME280;43608;49.486;9.640;2022-12-07T02:04:02;98717.19;;;-0.21;94.18
57779;BME280;43608;49.486;9.640;2022-12-07T02:04:33;98719.84;;;-0.20;93.92
57779;BME280;43608;49.486;9.640;2022-12-07T02:05:05;98731.28;;;-0.16;94.35
57779;BME280;43608;49.486;9.640;2022-12-07T02:05:37;98729.59;;;-0.15;94.07
57779;BME280;43608;49.486;9.640;2022-12-07T02:06:12;98698.50;;;-0.34;94.01
57779;BME280;43608;49.486;9.640;2022-12-07T02:06:45;98680.97;;;-0.38;94.04
57779;BME280;43608;49.486;9.640;2022-12-07T02:07:16;98721.56;;;-0.20;94.08
57779;BME280;43608;49.486;9.640;2022-12-07T02:07:47;98722.59;;;-0.17;94.06
57779;BME280;43608;49.486;9.640;2022-12-07T02:08:18;98712.88;;;-0.21;94.20
57779;BME280;43608;49.486;9.640;2022-12-07T02:08:50;98699.50;;;-0.30;94.12
57779;BME280;43608;49.486;9.640;2022-12-07T02:09:20;98713.66;;;-0.23;94.21
57779;BME280;43608;49.486;9.640;2022-12-07T02:09:50;98712.69;;;-0.25;94.17
57779;BME280;43608;49.486;9.640;2022-12-07T02:10:24;98717.25;;;-0.20;94.46
57779;BME280;43608;49.486;9.640;2022-12-07T02:10:55;98712.78;;;-0.22;94.49
57779;BME280;43608;49.486;9.640;2022-12-07T02:11:25;98725.31;;;-0.13;94.65
57779;BME280;43608;49.486;9.640;2022-12-07T02:11:56;98720.75;;;-0.19;94.33
57779;BME280;43608;49.486;9.640;2022-12-07T02:12:26;98723.59;;;-0.13;94.23
57779;BME280;43608;49.486;9.640;2022-12-07T02:13:01;98714.59;;;-0.21;94.71
57779;BME280;43608;49.486;9.640;2022-12-07T02:13:35;98719.06;;;-0.17;94.77
57779;BME280;43608;49.486;9.640;2022-12-07T02:14:06;98725.25;;;-0.15;94.42
57779;BME280;43608;49.486;9.640;2022-12-07T02:14:36;98715.66;;;-0.16;94.43
57779;BME280;43608;49.486;9.640;2022-12-07T02:15:07;98713.94;;;-0.15;94.47
57779;BME280;43608;49.486;9.640;2022-12-07T02:17:25;98714.94;;;-0.12;94.35
57779;BME280;43608;49.486;9.640;2022-12-07T02:18:07;98697.31;;;-0.19;94.33
57779;BME280;43608;49.486;9.640;2022-12-07T02:18:52;98713.22;;;-0.11;94.30
57779;BME280;43608;49.486;9.640;2022-12-07T02:19:39;98707.19;;;-0.10;94.34
57779;BME280;43608;49.486;9.640;2022-12-07T02:20:30;98719.38;;;-0.09;94.66
57779;BME280;43608;49.486;9.640;2022-12-07T02:25:47;98707.13;;;-0.12;94.85
57779;BME280;43608;49.486;9.640;2022-12-07T02:27:57;98713.81;;;0.04;95.23
57779;BME280;43608;49.486;9.640;2022-12-07T02:28:31;98704.28;;;0.05;95.31
57779;BME280;43608;49.486;9.640;2022-12-07T02:30:19;98714.75;;;0.06;94.54
57779;BME280;43608;49.486;9.640;2022-12-07T02:30:50;98686.34;;;-0.10;94.93
57779;BME280;43608;49.486;9.640;2022-12-07T02:31:23;98718.19;;;0.05;95.05
57779;BME280;43608;49.486;9.640;2022-12-07T02:32:07;98706.59;;;-0.03;94.56
57779;BME280;43608;49.486;9.640;2022-12-07T02:33:31;98719.91;;;0.05;94.66
57779;BME280;43608;49.486;9.640;2022-12-07T02:34:18;98698.72;;;-0.05;94.33
57779;BME280;43608;49.486;9.640;2022-12-07T02:34:56;98710.16;;;-0.01;94.39
57779;BME280;43608;49.486;9.640;2022-12-07T02:35:30;98716.34;;;0.03;94.54
57779;BME280;43608;49.486;9.640;2022-12-07T02:36:07;98718.94;;;0.03;94.88
57779;BME280;43608;49.486;9.640;2022-12-07T02:36:43;98697.75;;;-0.07;95.00
57779;BME280;43608;49.486;9.640;2022-12-07T02:38:36;98713.63;;;-0.01;94.97
57779;BME280;43608;49.486;9.640;2022-12-07T02:39:20;98727.56;;;0.00;94.70
57779;BME280;43608;49.486;9.640;2022-12-07T02:40:41;98722.38;;;0.00;95.13
57779;BME280;43608;49.486;9.640;2022-12-07T02:41:22;98727.56;;;0.00;94.92
57779;BME280;43608;49.486;9.640;2022-12-07T02:42:00;98700.97;;;-0.14;95.13
57779;BME280;43608;49.486;9.640;2022-12-07T02:42:39;98725.78;;;-0.01;94.70
57779;BME280;43608;49.486;9.640;2022-12-07T02:43:53;98717.84;;;-0.04;94.75
57779;BME280;43608;49.486;9.640;2022-12-07T02:44:26;98725.91;;;0.02;95.03
57779;BME280;43608;49.486;9.640;2022-12-07T02:44:58;98708.94;;;-0.09;95.29
57779;BME280;43608;49.486;9.640;2022-12-07T02:45:30;98725.03;;;0.02;95.30
57779;BME280;43608;49.486;9.640;2022-12-07T02:46:05;98715.47;;;0.02;94.96
57779;BME280;43608;49.486;9.640;2022-12-07T02:46:42;98713.47;;;-0.05;95.23
57779;BME280;43608;49.486;9.640;2022-12-07T02:47:14;98725.78;;;-0.01;94.97
57779;BME280;43608;49.486;9.640;2022-12-07T02:47:48;98701.03;;;-0.12;95.05
57779;BME280;43608;49.486;9.640;2022-12-07T02:48:21;98714.25;;;-0.08;95.48
57779;BME280;43608;49.486;9.640;2022-12-07T02:48:54;98724.88;;;-0.02;95.05
57779;BME280;43608;49.486;9.640;2022-12-07T02:49:26;98729.38;;;0.03;95.21
57779;BME280;43608;49.486;9.640;2022-12-07T02:49:57;98703.63;;;-0.12;95.11
57779;BME280;43608;49.486;9.640;2022-12-07T02:50:28;98708.91;;;-0.11;95.19
57779;BME280;43608;49.486;9.640;2022-12-07T02:50:58;98728.44;;;0.01;95.32
57779;BME280;43608;49.486;9.640;2022-12-07T02:51:30;98725.06;;;0.03;95.41
57779;BME280;43608;49.486;9.640;2022-12-07T02:52:01;98687.75;;;-0.19;94.98
57779;BME280;43608;49.486;9.640;2022-12-07T02:52:31;98722.28;;;-0.02;95.70
57779;BME280;43608;49.486;9.640;2022-12-07T02:53:01;98719.91;;;0.05;95.40
57779;BME280;43608;49.486;9.640;2022-12-07T02:53:34;98714.41;;;-0.03;94.99
57779;BME280;43608;49.486;9.640;2022-12-07T02:54:12;98705.72;;;-0.04;95.01
57779;BME280;43608;49.486;9.640;2022-12-07T02:54:43;98708.44;;;-0.01;95.25
57779;BME280;43608;49.486;9.640;2022-12-07T02:55:15;98724.09;;;0.01;95.29
57779;BME280;43608;49.486;9.640;2022-12-07T02:55:47;98698.53;;;-0.09;95.30
57779;BME280;43608;49.486;9.640;2022-12-07T03:00:03;98714.69;;;0.05;95.25
57779;BME280;43608;49.486;9.640;2022-12-07T03:00:42;98694.22;;;-0.09;95.65
57779;BME280;43608;49.486;9.640;2022-12-07T03:01:37;98715.56;;;0.05;95.33
57779;BME280;43608;49.486;9.640;2022-12-07T03:03:07;98711.28;;;0.06;95.00
57779;BME280;43608;49.486;9.640;2022-12-07T03:03:42;98709.50;;;0.05;95.56
57779;BME280;43608;49.486;9.640;2022-12-07T03:06:16;98707.88;;;0.08;95.56
57779;BME280;43608;49.486;9.640;2022-12-07T03:07:00;98710.56;;;0.10;95.76
57779;BME280;43608;49.486;9.640;2022-12-07T03:09:08;98670.94;;;-0.04;95.49
57779;BME280;43608;49.486;9.640;2022-12-07T03:11:29;98608.13;;;-0.36;95.79
57779;BME280;43608;49.486;9.640;2022-12-07T03:12:11;98698.75;;;0.20;95.87
57779;BME280;43608;49.486;9.640;2022-12-07T03:13:09;98688.25;;;0.18;95.72
57779;BME280;43608;49.486;9.640;2022-12-07T03:14:25;98694.53;;;0.23;95.99
57779;BME280;43608;49.486;9.640;2022-12-07T03:16:40;98697.38;;;0.29;95.67
57779;BME280;43608;49.486;9.640;2022-12-07T03:17:17;98686.72;;;0.23;95.52
57779;BME280;43608;49.486;9.640;2022-12-07T03:17:51;98655.81;;;0.10;95.84
57779;BME280;43608;49.486;9.640;2022-12-07T03:18:27;98685.16;;;0.28;95.17
57779;BME280;43608;49.486;9.640;2022-12-07T03:19:07;98693.13;;;0.31;95.25
57779;BME280;43608;49.486;9.640;2022-12-07T03:19:39;98687.75;;;0.28;95.47
57779;BME280;43608;49.486;9.640;2022-12-07T03:20:13;98685.16;;;0.28;95.22
57779;BME280;43608;49.486;9.640;2022-12-07T03:20:48;98689.66;;;0.32;95.01
57779;BME280;43608;49.486;9.640;2022-12-07T03:21:26;98682.72;;;0.33;95.41
57779;BME280;43608;49.486;9.640;2022-12-07T03:22:06;98688.81;;;0.33;95.39